sensor_id;sensor_type;location;lat;lon;timestamp;pressure;altitude;pressure_sealevel;temperature;humidity
77799;BME280;66989;50.426;15.352;2023-02-08T00:00:48;100681.41;;;-6.53;95.39
77799;BME280;66989;50.426;15.352;2023-02-08T00:03:13;100684.59;;;-6.60;96.49
77799;BME280;66989;50.426;15.352;2023-02-08T00:05:39;100679.47;;;-6.60;96.20
77799;BME280;66989;50.426;15.352;2023-02-08T00:08:05;100682.91;;;-6.60;96.46
77799;BME280;66989;50.426;15.352;2023-02-08T00:10:30;100684.50;;;-6.63;96.26
77799;BME280;66989;50.426;15.352;2023-02-08T00:12:55;100699.81;;;-6.67;95.92
77799;BME280;66989;50.426;15.352;2023-02-08T00:15:21;100706.53;;;-6.70;96.20
77799;BME280;66989;50.426;15.352;2023-02-08T00:17:47;100705.44;;;-6.77;96.40
77799;BME280;66989;50.426;15.352;2023-02-08T00:20:12;100702.69;;;-6.83;96.18
77799;BME280;66989;50.426;15.352;2023-02-08T00:22:38;100705.19;;;-6.84;96.56
77799;BME280;66989;50.426;15.352;2023-02-08T00:25:08;100704.13;;;-6.91;95.99
77799;BME280;66989;50.426;15.352;2023-02-08T00:27:34;100709.44;;;-6.85;97.05
77799;BME280;66989;50.426;15.352;2023-02-08T00:29:59;100713.03;;;-6.80;97.28
77799;BME280;66989;50.426;15.352;2023-02-08T00:32:25;100705.63;;;-6.72;97.18
77799;BME280;66989;50.426;15.352;2023-02-08T00:34:50;100706.56;;;-6.69;96.76
77799;BME280;66989;50.426;15.352;2023-02-08T00:37:16;100708.22;;;-6.71;96.50
77799;BME280;66989;50.426;15.352;2023-02-08T00:39:41;100705.41;;;-6.78;95.95
77799;BME280;66989;50.426;15.352;2023-02-08T00:42:07;100709.56;;;-6.82;96.27
77799;BME280;66989;50.426;15.352;2023-02-08T00:44:32;100713.75;;;-6.84;96.52
77799;BME280;66989;50.426;15.352;2023-02-08T00:46:58;100719.16;;;-6.76;97.20
77799;BME280;66989;50.426;15.352;2023-02-08T00:49:23;100721.03;;;-6.71;96.86
77799;BME280;66989;50.426;15.352;2023-02-08T00:51:49;100719.47;;;-6.67;96.89
77799;BME280;66989;50.426;15.352;2023-02-08T00:54:16;100720.19;;;-6.71;97.07
77799;BME280;66989;50.426;15.352;2023-02-08T00:56:42;100715.78;;;-6.74;96.87
77799;BME280;66989;50.426;15.352;2023-02-08T00:59:07;100715.72;;;-6.77;97.04
77799;BME280;66989;50.426;15.352;2023-02-08T01:01:33;100714.88;;;-6.76;97.47
77799;BME280;66989;50.426;15.352;2023-02-08T01:03:58;100715.72;;;-6.77;96.93
77799;BME280;66989;50.426;15.352;2023-02-08T01:06:23;100710.47;;;-6.80;97.50
77799;BME280;66989;50.426;15.352;2023-02-08T01:08:49;100718.34;;;-6.74;96.90
77799;BME280;66989;50.426;15.352;2023-02-08T01:11:17;100713.09;;;-6.78;97.46
77799;BME280;66989;50.426;15.352;2023-02-08T01:13:44;100717.44;;;-6.76;96.59
77799;BME280;66989;50.426;15.352;2023-02-08T01:16:14;100716.69;;;-6.73;97.04
77799;BME280;66989;50.426;15.352;2023-02-08T01:18:42;100716.03;;;-6.68;97.99
77799;BME280;66989;50.426;15.352;2023-02-08T01:21:14;100706.69;;;-6.66;96.68
77799;BME280;66989;50.426;15.352;2023-02-08T01:23:41;100714.63;;;-6.58;96.80
77799;BME280;66989;50.426;15.352;2023-02-08T01:26:07;100712.09;;;-6.56;96.43
77799;BME280;66989;50.426;15.352;2023-02-08T01:28:33;100711.47;;;-6.49;96.19
77799;BME280;66989;50.426;15.352;2023-02-08T01:30:59;100714.34;;;-6.40;95.81
77799;BME280;66989;50.426;15.352;2023-02-08T01:33:24;100710.31;;;-6.32;94.74
77799;BME280;66989;50.426;15.352;2023-02-08T01:35:53;100710.38;;;-6.29;95.08
77799;BME280;66989;50.426;15.352;2023-02-08T01:38:19;100707.56;;;-6.38;94.75
77799;BME280;66989;50.426;15.352;2023-02-08T01:40:45;100703.34;;;-6.36;94.84
77799;BME280;66989;50.426;15.352;2023-02-08T01:43:21;100711.06;;;-6.36;94.30
77799;BME280;66989;50.426;15.352;2023-02-08T01:45:47;100710.38;;;-6.29;94.11
77799;BME280;66989;50.426;15.352;2023-02-08T01:48:20;100705.97;;;-6.33;94.09
77799;BME280;66989;50.426;15.352;2023-02-08T01:51:08;100705.97;;;-6.33;94.74
77799;BME280;66989;50.426;15.352;2023-02-08T01:53:35;100707.56;;;-6.38;94.78
77799;BME280;66989;50.426;15.352;2023-02-08T01:56:04;100709.03;;;-6.46;94.93
77799;BME280;66989;50.426;15.352;2023-02-08T01:58:34;100710.56;;;-6.51;94.61
77799;BME280;66989;50.426;15.352;2023-02-08T02:01:02;100704.78;;;-6.44;95.11
77799;BME280;66989;50.426;15.352;2023-02-08T02:03:27;100709.03;;;-6.46;94.85
77799;BME280;66989;50.426;15.352;2023-02-08T02:06:10;100700.50;;;-6.45;95.13
77799;BME280;66989;50.426;15.352;2023-02-08T02:08:39;100701.47;;;-6.42;95.11
77799;BME280;66989;50.426;15.352;2023-02-08T02:11:06;100701.41;;;-6.43;95.31
77799;BME280;66989;50.426;15.352;2023-02-08T02:13:32;100696.38;;;-6.40;94.73
77799;BME280;66989;50.426;15.352;2023-02-08T02:15:58;100698.16;;;-6.37;94.55
77799;BME280;66989;50.426;15.352;2023-02-08T02:18:29;100694.69;;;-6.40;94.64
77799;BME280;66989;50.426;15.352;2023-02-08T02:26:46;100700.63;;;-6.41;95.21
77799;BME280;66989;50.426;15.352;2023-02-08T02:34:53;100697.22;;;-6.41;94.63
77799;BME280;66989;50.426;15.352;2023-02-08T02:43:21;100699.06;;;-6.35;94.27
77799;BME280;66989;50.426;15.352;2023-02-08T02:49:08;100709.31;;;-6.37;94.44
77799;BME280;66989;50.426;15.352;2023-02-08T02:54:21;100703.16;;;-6.42;94.54
77799;BME280;66989;50.426;15.352;2023-02-08T02:56:51;100709.03;;;-6.46;94.47
77799;BME280;66989;50.426;15.352;2023-02-08T02:59:20;100712.19;;;-6.53;94.92
77799;BME280;66989;50.426;15.352;2023-02-08T03:01:47;100714.75;;;-6.53;95.07
77799;BME280;66989;50.426;15.352;2023-02-08T03:07:18;100714.97;;;-6.47;95.07
77799;BME280;66989;50.426;15.352;2023-02-08T03:26:51;100719.06;;;-6.25;96.35
77799;BME280;66989;50.426;15.352;2023-02-08T03:37:58;100733.38;;;-6.05;95.62
77799;BME280;66989;50.426;15.352;2023-02-08T03:40:48;100731.75;;;-6.01;95.19
77799;BME280;66989;50.426;15.352;2023-02-08T03:43:20;100732.69;;;-5.99;94.90
77799;BME280;66989;50.426;15.352;2023-02-08T03:45:52;100725.97;;;-5.96;94.07
77799;BME280;66989;50.426;15.352;2023-02-08T03:48:21;100738.00;;;-5.93;93.67
77799;BME280;66989;50.426;15.352;2023-02-08T03:50:49;100726.97;;;-5.91;94.42
77799;BME280;66989;50.426;15.352;2023-02-08T03:53:19;100731.31;;;-5.88;93.57
77799;BME280;66989;50.426;15.352;2023-02-08T03:55:48;100733.16;;;-5.84;93.94
77799;BME280;66989;50.426;15.352;2023-02-08T03:58:16;100737.56;;;-5.80;94.58
77799;BME280;66989;50.426;15.352;2023-02-08T04:00:50;100739.31;;;-5.79;93.93
77799;BME280;66989;50.426;15.352;2023-02-08T04:03:21;100728.19;;;-5.78;94.22
77799;BME280;66989;50.426;15.352;2023-02-08T04:05:48;100729.16;;;-5.74;92.73
77799;BME280;66989;50.426;15.352;2023-02-08T04:08:14;100734.44;;;-5.70;93.61
77799;BME280;66989;50.426;15.352;2023-02-08T04:10:39;100737.09;;;-5.67;93.07
77799;BME280;66989;50.426;15.352;2023-02-08T04:13:05;100731.19;;;-5.64;93.24
77799;BME280;66989;50.426;15.352;2023-02-08T04:15:30;100731.94;;;-5.67;92.86
77799;BME280;66989;50.426;15.352;2023-02-08T04:17:56;100727.75;;;-5.65;92.70
77799;BME280;66989;50.426;15.352;2023-02-08T04:20:21;100738.09;;;-5.62;93.03
77799;BME280;66989;50.426;15.352;2023-02-08T04:22:47;100736.47;;;-5.59;93.14
77799;BME280;66989;50.426;15.352;2023-02-08T04:25:13;100735.69;;;-5.55;92.77
77799;BME280;66989;50.426;15.352;2023-02-08T04:27:38;100741.03;;;-5.49;92.59
77799;BME280;66989;50.426;15.352;2023-02-08T04:30:04;100743.66;;;-5.48;92.60
77799;BME280;66989;50.426;15.352;2023-02-08T04:32:29;100740.22;;;-5.48;92.33
77799;BME280;66989;50.426;15.352;2023-02-08T04:34:55;100740.25;;;-5.47;92.15
77799;BME280;66989;50.426;15.352;2023-02-08T04:37:21;100731.72;;;-5.44;92.40
77799;BME280;66989;50.426;15.352;2023-02-08T04:39:46;100741.34;;;-5.39;92.06
77799;BME280;66989;50.426;15.352;2023-02-08T04:42:11;100733.63;;;-5.39;91.85
77799;BME280;66989;50.426;15.352;2023-02-08T04:44:37;100725.97;;;-5.37;92.17
77799;BME280;66989;50.426;15.352;2023-02-08T04:47:02;100726.84;;;-5.35;91.70
77799;BME280;66989;50.426;15.352;2023-02-08T04:49:28;100736.38;;;-5.32;91.71
77799;BME280;66989;50.426;15.352;2023-02-08T04:51:53;100735.63;;;-5.28;92.23
77799;BME280;66989;50.426;15.352;2023-02-08T04:54:19;100731.38;;;-5.28;92.01
77799;BME280;66989;50.426;15.352;2023-02-08T04:56:44;100736.56;;;-5.25;92.01
77799;BME280;66989;50.426;15.352;2023-02-08T04:59:09;100734.06;;;-5.23;91.99
77799;BME280;66989;50.426;15.352;2023-02-08T05:01:35;100747.94;;;-5.17;92.49
77799;BME280;66989;50.426;15.352;2023-02-08T05:04:00;100740.50;;;-5.07;92.46
77799;BME280;66989;50.426;15.352;2023-02-08T05:06:25;100737.00;;;-5.10;91.46
77799;BME280;66989;50.426;15.352;2023-02-08T05:08:51;100739.53;;;-5.11;91.42
77799;BME280;66989;50.426;15.352;2023-02-08T05:11:24;100736.97;;;-5.11;91.89
77799;BME280;66989;50.426;15.352;2023-02-08T05:13:50;100743.84;;;-5.10;91.39
77799;BME280;66989;50.426;15.352;2023-02-08T05:16:15;100742.22;;;-5.06;92.10
77799;BME280;66989;50.426;15.352;2023-02-08T05:18:41;100744.88;;;-5.03;91.91
77799;BME280;66989;50.426;15.352;2023-02-08T05:21:06;100749.09;;;-5.05;91.65
77799;BME280;66989;50.426;15.352;2023-02-08T05:23:33;100739.69;;;-5.05;91.90
77799;BME280;66989;50.426;15.352;2023-02-08T05:25:59;100752.69;;;-5.00;92.25
77799;BME280;66989;50.426;15.352;2023-02-08T05:28:24;100745.81;;;-5.00;91.59
77799;BME280;66989;50.426;15.352;2023-02-08T05:30:51;100750.09;;;-5.00;91.58
77799;BME280;66989;50.426;15.352;2023-02-08T05:33:17;100746.63;;;-5.02;91.56
77799;BME280;66989;50.426;15.352;2023-02-08T05:35:45;100751.78;;;-5.02;92.19
77799;BME280;66989;50.426;15.352;2023-02-08T05:38:11;100744.97;;;-5.00;91.69
77799;BME280;66989;50.426;15.352;2023-02-08T05:40:36;100753.63;;;-4.97;92.53
77799;BME280;66989;50.426;15.352;2023-02-08T05:43:02;100752.84;;;-4.94;92.33
77799;BME280;66989;50.426;15.352;2023-02-08T05:45:27;100754.56;;;-4.93;92.48
77799;BME280;66989;50.426;15.352;2023-02-08T05:47:53;100758.06;;;-4.91;91.75
77799;BME280;66989;50.426;15.352;2023-02-08T05:50:18;100760.66;;;-4.91;92.32
77799;BME280;66989;50.426;15.352;2023-02-08T05:52:45;100750.41;;;-4.88;92.51
77799;BME280;66989;50.426;15.352;2023-02-08T05:55:10;100763.38;;;-4.85;92.01
77799;BME280;66989;50.426;15.352;2023-02-08T05:57:36;100759.97;;;-4.84;92.03
77799;BME280;66989;50.426;15.352;2023-02-08T06:00:04;100768.69;;;-4.79;91.66
77799;BME280;66989;50.426;15.352;2023-02-08T06:02:30;100767.94;;;-4.75;91.48
77799;BME280;66989;50.426;15.352;2023-02-08T06:04:56;100771.47;;;-4.71;91.40
77799;BME280;66989;50.426;15.352;2023-02-08T06:07:22;100766.41;;;-4.67;91.69
77799;BME280;66989;50.426;15.352;2023-02-08T06:09:47;100767.50;;;-4.59;92.12
77799;BME280;66989;50.426;15.352;2023-02-08T06:12:13;100769.44;;;-4.50;91.72
77799;BME280;66989;50.426;15.352;2023-02-08T06:14:38;100767.75;;;-4.49;90.38
77799;BME280;66989;50.426;15.352;2023-02-08T06:17:03;100770.34;;;-4.48;90.28
77799;BME280;66989;50.426;15.352;2023-02-08T06:19:29;100777.28;;;-4.45;89.65
77799;BME280;66989;50.426;15.352;2023-02-08T06:21:54;100779.03;;;-4.44;89.59
77799;BME280;66989;50.426;15.352;2023-02-08T06:24:19;100782.50;;;-4.42;89.87
77799;BME280;66989;50.426;15.352;2023-02-08T06:26:45;100781.66;;;-4.41;89.46
77799;BME280;66989;50.426;15.352;2023-02-08T06:29:10;100781.75;;;-4.38;88.45
77799;BME280;66989;50.426;15.352;2023-02-08T06:31:37;100782.69;;;-4.35;88.20
77799;BME280;66989;50.426;15.352;2023-02-08T06:34:02;100782.72;;;-4.33;87.46
77799;BME280;66989;50.426;15.352;2023-02-08T06:36:28;100775.09;;;-4.30;88.11
77799;BME280;66989;50.426;15.352;2023-02-08T06:38:53;100788.03;;;-4.27;87.50
77799;BME280;66989;50.426;15.352;2023-02-08T06:41:18;100782.13;;;-4.23;87.39
77799;BME280;66989;50.426;15.352;2023-02-08T06:43:45;100774.44;;;-4.21;87.12
77799;BME280;66989;50.426;15.352;2023-02-08T06:46:10;100778.78;;;-4.19;86.63
77799;BME280;66989;50.426;15.352;2023-02-08T06:48:36;100784.00;;;-4.16;86.53
77799;BME280;66989;50.426;15.352;2023-02-08T06:51:02;100787.50;;;-4.14;86.52
77799;BME280;66989;50.426;15.352;2023-02-08T06:53:28;100782.41;;;-4.11;86.48
77799;BME280;66989;50.426;15.352;2023-02-08T06:55:54;100783.38;;;-4.07;85.65
77799;BME280;66989;50.426;15.352;2023-02-08T06:58:19;100782.63;;;-4.01;86.37
77799;BME280;66989;50.426;15.352;2023-02-08T07:00:45;100787.09;;;-3.94;85.85
77799;BME280;66989;50.426;15.352;2023-02-08T07:03:12;100780.34;;;-3.88;86.27
77799;BME280;66989;50.426;15.352;2023-02-08T07:05:38;100779.84;;;-3.73;85.94
77799;BME280;66989;50.426;15.352;2023-02-08T07:08:04;100788.69;;;-3.62;85.40
77799;BME280;66989;50.426;15.352;2023-02-08T07:10:30;100783.66;;;-3.56;84.66
77799;BME280;66989;50.426;15.352;2023-02-08T07:12:56;100785.47;;;-3.52;83.84
77799;BME280;66989;50.426;15.352;2023-02-08T07:15:22;100786.38;;;-3.48;83.68
77799;BME280;66989;50.426;15.352;2023-02-08T07:17:47;100789.78;;;-3.10;82.06
77799;BME280;66989;50.426;15.352;2023-02-08T07:20:13;100783.97;;;-2.53;80.06
77799;BME280;66989;50.426;15.352;2023-02-08T07:22:39;100778.97;;;-1.89;77.09
77799;BME280;66989;50.426;15.352;2023-02-08T07:25:05;100781.47;;;-1.36;74.12
77799;BME280;66989;50.426;15.352;2023-02-08T07:27:32;100788.03;;;-0.94;72.31
77799;BME280;66989;50.426;15.352;2023-02-08T07:29:57;100777.88;;;-0.74;69.49
77799;BME280;66989;50.426;15.352;2023-02-08T07:32:23;100783.72;;;-0.91;69.76
77799;BME280;66989;50.426;15.352;2023-02-08T07:34:49;100785.72;;;-0.67;70.01
77799;BME280;66989;50.426;15.352;2023-02-08T07:37:14;100777.63;;;-0.11;67.77
77799;BME280;66989;50.426;15.352;2023-02-08T07:39:39;100780.53;;;0.38;64.92
77799;BME280;66989;50.426;15.352;2023-02-08T07:42:07;100778.13;;;0.67;63.74
77799;BME280;66989;50.426;15.352;2023-02-08T07:44:33;100782.59;;;0.99;62.07
77799;BME280;66989;50.426;15.352;2023-02-08T07:46:58;100771.47;;;1.51;59.96
77799;BME280;66989;50.426;15.352;2023-02-08T07:49:25;100762.81;;;1.71;59.48
77799;BME280;66989;50.426;15.352;2023-02-08T07:51:51;100773.19;;;2.37;56.35
77799;BME280;66989;50.426;15.352;2023-02-08T07:54:16;100765.38;;;2.43;55.48
77799;BME280;66989;50.426;15.352;2023-02-08T07:56:41;100778.19;;;3.04;53.92
77799;BME280;66989;50.426;15.352;2023-02-08T07:59:07;100766.75;;;3.32;53.01
77799;BME280;66989;50.426;15.352;2023-02-08T08:01:33;100761.28;;;3.65;51.69
77799;BME280;66989;50.426;15.352;2023-02-08T08:03:58;100770.50;;;4.14;49.93
77799;BME280;66989;50.426;15.352;2023-02-08T08:06:24;100762.41;;;4.37;49.49
77799;BME280;66989;50.426;15.352;2023-02-08T08:08:51;100761.78;;;4.95;48.08
77799;BME280;66989;50.426;15.352;2023-02-08T08:11:17;100763.13;;;5.26;46.92
77799;BME280;66989;50.426;15.352;2023-02-08T08:13:42;100764.97;;;5.15;45.40
77799;BME280;66989;50.426;15.352;2023-02-08T08:16:08;100755.63;;;5.00;45.31
77799;BME280;66989;50.426;15.352;2023-02-08T08:18:34;100752.88;;;5.70;44.73
77799;BME280;66989;50.426;15.352;2023-02-08T08:21:00;100762.91;;;5.42;43.58
77799;BME280;66989;50.426;15.352;2023-02-08T08:23:26;100758.81;;;5.79;43.13
77799;BME280;66989;50.426;15.352;2023-02-08T08:25:53;100760.25;;;5.99;42.85
77799;BME280;66989;50.426;15.352;2023-02-08T08:28:19;100757.63;;;6.93;42.10
77799;BME280;66989;50.426;15.352;2023-02-08T08:30:44;100749.78;;;7.32;39.95
77799;BME280;66989;50.426;15.352;2023-02-08T08:33:14;100744.56;;;7.69;39.25
77799;BME280;66989;50.426;15.352;2023-02-08T08:35:40;100740.81;;;8.15;38.63
77799;BME280;66989;50.426;15.352;2023-02-08T08:38:06;100739.13;;;9.09;37.86
77799;BME280;66989;50.426;15.352;2023-02-08T08:40:32;100744.06;;;9.19;35.48
77799;BME280;66989;50.426;15.352;2023-02-08T08:42:57;100748.34;;;8.29;36.67
77799;BME280;66989;50.426;15.352;2023-02-08T08:45:23;100751.44;;;8.44;37.31
77799;BME280;66989;50.426;15.352;2023-02-08T08:47:48;100750.41;;;8.83;35.60
77799;BME280;66989;50.426;15.352;2023-02-08T08:50:14;100747.19;;;8.06;37.24
77799;BME280;66989;50.426;15.352;2023-02-08T08:52:42;100755.06;;;7.30;39.07
77799;BME280;66989;50.426;15.352;2023-02-08T08:55:08;100754.81;;;8.49;37.33
77799;BME280;66989;50.426;15.352;2023-02-08T08:57:33;100741.94;;;9.30;36.15
77799;BME280;66989;50.426;15.352;2023-02-08T08:59:59;100750.13;;;9.21;36.24
77799;BME280;66989;50.426;15.352;2023-02-08T09:02:24;100740.84;;;9.66;35.01
77799;BME280;66989;50.426;15.352;2023-02-08T09:04:50;100740.00;;;10.18;34.35
77799;BME280;66989;50.426;15.352;2023-02-08T09:07:18;100735.88;;;10.09;33.38
77799;BME280;66989;50.426;15.352;2023-02-08T09:09:45;100747.16;;;9.88;33.42
77799;BME280;66989;50.426;15.352;2023-02-08T09:12:14;100753.97;;;10.20;33.28
77799;BME280;66989;50.426;15.352;2023-02-08T09:14:42;100751.28;;;10.22;33.31
77799;BME280;66989;50.426;15.352;2023-02-08T09:17:09;100755.34;;;9.79;32.80
77799;BME280;66989;50.426;15.352;2023-02-08T09:19:35;100754.31;;;9.56;33.15
77799;BME280;66989;50.426;15.352;2023-02-08T09:22:00;100757.94;;;8.95;34.48
77799;BME280;66989;50.426;15.352;2023-02-08T09:24:26;100762.81;;;8.45;35.54
77799;BME280;66989;50.426;15.352;2023-02-08T09:26:51;100762.25;;;9.83;35.02
77799;BME280;66989;50.426;15.352;2023-02-08T09:29:17;100754.44;;;10.33;32.74
77799;BME280;66989;50.426;15.352;2023-02-08T09:31:42;100758.38;;;9.67;33.50
77799;BME280;66989;50.426;15.352;2023-02-08T09:34:08;100754.91;;;10.94;33.08
77799;BME280;66989;50.426;15.352;2023-02-08T09:36:36;100746.38;;;11.56;30.18
77799;BME280;66989;50.426;15.352;2023-02-08T09:39:07;100752.19;;;10.47;31.92
77799;BME280;66989;50.426;15.352;2023-02-08T09:47:17;100743.28;;;12.52;29.62
77799;BME280;66989;50.426;15.352;2023-02-08T09:49:55;100737.91;;;12.33;28.61
77799;BME280;66989;50.426;15.352;2023-02-08T09:52:28;100742.75;;;12.01;28.67
77799;BME280;66989;50.426;15.352;2023-02-08T09:54:58;100732.50;;;11.28;29.92
77799;BME280;66989;50.426;15.352;2023-02-08T09:57:32;100746.59;;;11.05;30.72
77799;BME280;66989;50.426;15.352;2023-02-08T10:00:11;100752.69;;;10.32;31.45
77799;BME280;66989;50.426;15.352;2023-02-08T10:02:39;100761.75;;;8.52;34.75
77799;BME280;66989;50.426;15.352;2023-02-08T10:05:13;100768.59;;;8.25;36.92
77799;BME280;66989;50.426;15.352;2023-02-08T10:07:40;100772.47;;;8.44;35.70
77799;BME280;66989;50.426;15.352;2023-02-08T10:10:16;100758.59;;;9.59;34.53
77799;BME280;66989;50.426;15.352;2023-02-08T10:12:58;100765.50;;;9.35;33.91
77799;BME280;66989;50.426;15.352;2023-02-08T10:15:36;100748.94;;;9.60;34.27
77799;BME280;66989;50.426;15.352;2023-02-08T10:18:21;100753.72;;;7.88;36.19
77799;BME280;66989;50.426;15.352;2023-02-08T10:21:05;100763.91;;;7.28;38.49
77799;BME280;66989;50.426;15.352;2023-02-08T10:23:52;100757.97;;;6.30;40.14
77799;BME280;66989;50.426;15.352;2023-02-08T10:26:47;100768.22;;;5.91;41.48
77799;BME280;66989;50.426;15.352;2023-02-08T10:34:55;100762.91;;;5.40;43.22
77799;BME280;66989;50.426;15.352;2023-02-08T10:37:29;100758.91;;;5.13;43.80
77799;BME280;66989;50.426;15.352;2023-02-08T10:39:58;100759.00;;;5.07;44.52
77799;BME280;66989;50.426;15.352;2023-02-08T10:42:26;100754.38;;;5.84;42.83
77799;BME280;66989;50.426;15.352;2023-02-08T10:47:49;100750.75;;;5.37;43.01
77799;BME280;66989;50.426;15.352;2023-02-08T10:52:49;100745.91;;;5.69;42.28
77799;BME280;66989;50.426;15.352;2023-02-08T10:55:17;100746.75;;;5.09;42.98
77799;BME280;66989;50.426;15.352;2023-02-08T10:57:45;100747.09;;;4.84;43.77
77799;BME280;66989;50.426;15.352;2023-02-08T11:00:19;100763.41;;;4.25;45.73
77799;BME280;66989;50.426;15.352;2023-02-08T11:02:45;100751.16;;;4.33;46.53
77799;BME280;66989;50.426;15.352;2023-02-08T11:05:16;100743.50;;;4.13;47.48
77799;BME280;66989;50.426;15.352;2023-02-08T11:07:42;100751.91;;;3.41;48.02
77799;BME280;66989;50.426;15.352;2023-02-08T11:12:59;100739.69;;;5.17;43.78
77799;BME280;66989;50.426;15.352;2023-02-08T11:15:38;100731.00;;;5.13;42.80
77799;BME280;66989;50.426;15.352;2023-02-08T11:18:05;100723.81;;;5.29;43.23
77799;BME280;66989;50.426;15.352;2023-02-08T11:20:38;100736.00;;;5.87;41.74
77799;BME280;66989;50.426;15.352;2023-02-08T11:23:15;100717.28;;;6.57;41.43
77799;BME280;66989;50.426;15.352;2023-02-08T11:25:41;100709.75;;;7.61;39.30
77799;BME280;66989;50.426;15.352;2023-02-08T11:28:28;100698.78;;;8.78;36.98
77799;BME280;66989;50.426;15.352;2023-02-08T11:30:55;100719.72;;;6.66;38.76
77799;BME280;66989;50.426;15.352;2023-02-08T11:33:21;100714.81;;;5.49;41.29
77799;BME280;66989;50.426;15.352;2023-02-08T11:35:58;100720.00;;;4.92;43.46
77799;BME280;66989;50.426;15.352;2023-02-08T11:38:24;100708.59;;;4.94;47.94
77799;BME280;66989;50.426;15.352;2023-02-08T11:40:54;100713.69;;;4.35;45.48
77799;BME280;66989;50.426;15.352;2023-02-08T11:43:29;100716.31;;;4.32;47.59
77799;BME280;66989;50.426;15.352;2023-02-08T11:45:57;100713.41;;;3.77;46.27
77799;BME280;66989;50.426;15.352;2023-02-08T11:48:28;100709.38;;;3.32;48.25
77799;BME280;66989;50.426;15.352;2023-02-08T11:51:00;100719.31;;;2.59;50.47
77799;BME280;66989;50.426;15.352;2023-02-08T11:53:35;100724.50;;;2.61;49.42
77799;BME280;66989;50.426;15.352;2023-02-08T11:56:13;100720.25;;;2.43;50.97
77799;BME280;66989;50.426;15.352;2023-02-08T11:58:40;100721.13;;;2.30;52.12
77799;BME280;66989;50.426;15.352;2023-02-08T12:01:19;100712.47;;;2.24;51.03
77799;BME280;66989;50.426;15.352;2023-02-08T12:03:46;100718.56;;;2.17;51.65
77799;BME280;66989;50.426;15.352;2023-02-08T12:11:45;100706.41;;;2.21;52.90
77799;BME280;66989;50.426;15.352;2023-02-08T12:22:39;100692.78;;;5.63;42.83
77799;BME280;66989;50.426;15.352;2023-02-08T12:30:44;100689.03;;;2.37;51.08
77799;BME280;66989;50.426;15.352;2023-02-08T12:39:07;100664.38;;;4.08;46.19
77799;BME280;66989;50.426;15.352;2023-02-08T12:47:45;100668.28;;;2.05;52.00
77799;BME280;66989;50.426;15.352;2023-02-08T12:50:23;100674.41;;;1.71;52.98
77799;BME280;66989;50.426;15.352;2023-02-08T12:52:56;100687.41;;;1.47;52.76
77799;BME280;66989;50.426;15.352;2023-02-08T12:57:52;100668.28;;;0.88;55.44
77799;BME280;66989;50.426;15.352;2023-02-08T13:00:29;100666.41;;;0.49;56.46
77799;BME280;66989;50.426;15.352;2023-02-08T13:05:39;100673.25;;;0.29;58.10
77799;BME280;66989;50.426;15.352;2023-02-08T13:10:50;100662.28;;;1.12;56.94
77799;BME280;66989;50.426;15.352;2023-02-08T13:13:28;100648.59;;;3.23;51.28
77799;BME280;66989;50.426;15.352;2023-02-08T13:15:59;100644.56;;;4.64;45.84
77799;BME280;66989;50.426;15.352;2023-02-08T13:18:32;100627.66;;;5.95;41.70
77799;BME280;66989;50.426;15.352;2023-02-08T13:21:13;100624.88;;;6.47;40.27
77799;BME280;66989;50.426;15.352;2023-02-08T13:23:43;100613.75;;;7.15;38.19
77799;BME280;66989;50.426;15.352;2023-02-08T13:26:16;100606.66;;;6.81;39.38
77799;BME280;66989;50.426;15.352;2023-02-08T13:28:56;100619.56;;;6.50;39.60
77799;BME280;66989;50.426;15.352;2023-02-08T13:33:57;100623.19;;;6.00;40.24
77799;BME280;66989;50.426;15.352;2023-02-08T13:36:35;100632.28;;;6.68;39.27
77799;BME280;66989;50.426;15.352;2023-02-08T13:39:04;100621.50;;;6.82;38.98
77799;BME280;66989;50.426;15.352;2023-02-08T13:41:31;100618.72;;;6.88;38.96
77799;BME280;66989;50.426;15.352;2023-02-08T13:44:01;100617.25;;;6.75;38.80
77799;BME280;66989;50.426;15.352;2023-02-08T13:46:35;100622.16;;;6.90;38.59
77799;BME280;66989;50.426;15.352;2023-02-08T13:49:01;100615.28;;;6.86;39.18
77799;BME280;66989;50.426;15.352;2023-02-08T13:56:48;100612.03;;;8.16;36.45
77799;BME280;66989;50.426;15.352;2023-02-08T13:59:30;100619.59;;;7.96;36.54
77799;BME280;66989;50.426;15.352;2023-02-08T14:04:46;100613.31;;;7.33;37.83
77799;BME280;66989;50.426;15.352;2023-02-08T14:07:21;100617.41;;;6.69;38.99
77799;BME280;66989;50.426;15.352;2023-02-08T14:10:20;100624.88;;;6.04;39.60
77799;BME280;66989;50.426;15.352;2023-02-08T14:12:56;100621.97;;;6.19;40.38
77799;BME280;66989;50.426;15.352;2023-02-08T14:15:27;100624.75;;;6.10;40.60
77799;BME280;66989;50.426;15.352;2023-02-08T14:17:54;100627.53;;;6.01;40.78
77799;BME280;66989;50.426;15.352;2023-02-08T14:23:06;100621.22;;;5.64;41.89
77799;BME280;66989;50.426;15.352;2023-02-08T14:25:40;100609.84;;;6.12;41.07
77799;BME280;66989;50.426;15.352;2023-02-08T14:28:23;100631.59;;;6.59;39.60
77799;BME280;66989;50.426;15.352;2023-02-08T14:30:52;100622.44;;;5.95;40.92
77799;BME280;66989;50.426;15.352;2023-02-08T14:33:24;100621.69;;;4.80;43.16
77799;BME280;66989;50.426;15.352;2023-02-08T14:35:54;100622.81;;;5.22;42.83
77799;BME280;66989;50.426;15.352;2023-02-08T14:40:58;100630.00;;;4.45;43.81
77799;BME280;66989;50.426;15.352;2023-02-08T14:45:55;100616.69;;;5.23;43.78
77799;BME280;66989;50.426;15.352;2023-02-08T14:48:32;100611.13;;;4.87;43.86
77799;BME280;66989;50.426;15.352;2023-02-08T14:53:39;100613.06;;;4.75;44.45
77799;BME280;66989;50.426;15.352;2023-02-08T14:56:15;100614.25;;;4.51;45.00
77799;BME280;66989;50.426;15.352;2023-02-08T14:58:44;100621.66;;;4.15;45.19
77799;BME280;66989;50.426;15.352;2023-02-08T15:03:54;100617.88;;;3.61;48.33
77799;BME280;66989;50.426;15.352;2023-02-08T15:09:01;100618.16;;;3.27;49.05